sensor_id;sensor_type;location;lat;lon;timestamp;P1;durP1;ratioP1;P2;durP2;ratioP2
24151;SDS011;12311;50.866;4.332;2023-08-31T00:00:29;1.45;;;0.95;;
24151;SDS011;12311;50.866;4.332;2023-08-31T00:02:56;1.45;;;0.90;;
24151;SDS011;12311;50.866;4.332;2023-08-31T00:05:23;2.33;;;1.20;;
24151;SDS011;12311;50.866;4.332;2023-08-31T00:07:50;3.88;;;1.10;;
24151;SDS011;12311;50.866;4.332;2023-08-31T00:10:16;1.00;;;0.90;;
24151;SDS011;12311;50.866;4.332;2023-08-31T00:12:42;3.55;;;1.13;;
24151;SDS011;12311;50.866;4.332;2023-08-31T00:15:08;1.50;;;0.90;;
24151;SDS011;12311;50.866;4.332;2023-08-31T00:17:35;1.60;;;1.00;;
24151;SDS011;12311;50.866;4.332;2023-08-31T00:20:03;2.08;;;1.05;;
24151;SDS011;12311;50.866;4.332;2023-08-31T00:22:31;2.22;;;1.08;;
24151;SDS011;12311;50.866;4.332;2023-08-31T00:24:57;3.70;;;1.05;;
24151;SDS011;12311;50.866;4.332;2023-08-31T00:27:23;2.72;;;1.33;;
24151;SDS011;12311;50.866;4.332;2023-08-31T00:29:49;2.42;;;1.40;;
24151;SDS011;12311;50.866;4.332;2023-08-31T00:32:16;2.67;;;1.30;;
24151;SDS011;12311;50.866;4.332;2023-08-31T00:34:43;2.05;;;1.08;;
24151;SDS011;12311;50.866;4.332;2023-08-31T00:37:09;2.28;;;1.13;;
24151;SDS011;12311;50.866;4.332;2023-08-31T00:39:35;2.55;;;1.10;;
24151;SDS011;12311;50.866;4.332;2023-08-31T00:42:00;2.20;;;1.20;;
24151;SDS011;12311;50.866;4.332;2023-08-31T00:44:26;3.13;;;1.20;;
24151;SDS011;12311;50.866;4.332;2023-08-31T00:46:52;2.35;;;1.23;;
24151;SDS011;12311;50.866;4.332;2023-08-31T00:49:18;2.67;;;1.35;;
24151;SDS011;12311;50.866;4.332;2023-08-31T00:51:44;2.15;;;1.30;;
24151;SDS011;12311;50.866;4.332;2023-08-31T00:56:42;2.95;;;1.40;;
24151;SDS011;12311;50.866;4.332;2023-08-31T00:59:08;2.95;;;1.40;;
24151;SDS011;12311;50.866;4.332;2023-08-31T01:06:49;3.72;;;1.38;;
24151;SDS011;12311;50.866;4.332;2023-08-31T01:09:43;2.58;;;1.50;;
24151;SDS011;12311;50.866;4.332;2023-08-31T01:12:35;3.75;;;1.85;;
24151;SDS011;12311;50.866;4.332;2023-08-31T01:15:11;3.15;;;1.65;;
24151;SDS011;12311;50.866;4.332;2023-08-31T01:17:52;2.80;;;1.50;;
24151;SDS011;12311;50.866;4.332;2023-08-31T01:20:25;2.60;;;1.60;;
24151;SDS011;12311;50.866;4.332;2023-08-31T01:23:01;3.15;;;1.55;;
24151;SDS011;12311;50.866;4.332;2023-08-31T01:25:31;2.85;;;1.45;;
24151;SDS011;12311;50.866;4.332;2023-08-31T01:27:58;2.47;;;1.55;;
24151;SDS011;12311;50.866;4.332;2023-08-31T01:30:25;2.20;;;1.38;;
24151;SDS011;12311;50.866;4.332;2023-08-31T01:32:54;2.25;;;1.48;;
24151;SDS011;12311;50.866;4.332;2023-08-31T01:35:20;4.10;;;2.10;;
24151;SDS011;12311;50.866;4.332;2023-08-31T01:38:07;2.60;;;1.50;;
24151;SDS011;12311;50.866;4.332;2023-08-31T01:43:08;4.25;;;1.55;;
24151;SDS011;12311;50.866;4.332;2023-08-31T01:45:36;2.70;;;1.63;;
24151;SDS011;12311;50.866;4.332;2023-08-31T01:48:03;6.05;;;1.70;;
24151;SDS011;12311;50.866;4.332;2023-08-31T01:50:29;3.03;;;1.83;;
24151;SDS011;12311;50.866;4.332;2023-08-31T01:52:55;2.50;;;1.55;;
24151;SDS011;12311;50.866;4.332;2023-08-31T01:55:21;3.22;;;2.17;;
24151;SDS011;12311;50.866;4.332;2023-08-31T01:57:47;3.58;;;1.60;;
24151;SDS011;12311;50.866;4.332;2023-08-31T02:00:13;2.08;;;1.45;;
24151;SDS011;12311;50.866;4.332;2023-08-31T02:02:40;3.83;;;1.75;;
24151;SDS011;12311;50.866;4.332;2023-08-31T02:05:07;2.78;;;1.52;;
24151;SDS011;12311;50.866;4.332;2023-08-31T02:07:33;4.65;;;1.60;;
24151;SDS011;12311;50.866;4.332;2023-08-31T02:09:59;3.00;;;1.70;;
24151;SDS011;12311;50.866;4.332;2023-08-31T02:12:25;3.85;;;1.75;;
24151;SDS011;12311;50.866;4.332;2023-08-31T02:14:51;4.93;;;1.83;;
24151;SDS011;12311;50.866;4.332;2023-08-31T02:17:16;5.80;;;2.08;;
24151;SDS011;12311;50.866;4.332;2023-08-31T02:19:42;3.67;;;1.58;;
24151;SDS011;12311;50.866;4.332;2023-08-31T02:22:08;2.75;;;1.45;;
24151;SDS011;12311;50.866;4.332;2023-08-31T02:24:34;3.58;;;2.10;;
24151;SDS011;12311;50.866;4.332;2023-08-31T02:26:59;4.00;;;1.60;;
24151;SDS011;12311;50.866;4.332;2023-08-31T02:29:25;2.33;;;1.52;;
24151;SDS011;12311;50.866;4.332;2023-08-31T02:31:51;3.20;;;1.42;;
24151;SDS011;12311;50.866;4.332;2023-08-31T02:34:16;3.22;;;1.52;;
24151;SDS011;12311;50.866;4.332;2023-08-31T02:36:42;3.17;;;1.60;;
24151;SDS011;12311;50.866;4.332;2023-08-31T02:39:08;4.10;;;2.00;;
24151;SDS011;12311;50.866;4.332;2023-08-31T02:41:34;3.08;;;1.75;;
24151;SDS011;12311;50.866;4.332;2023-08-31T02:43:59;5.80;;;1.80;;
24151;SDS011;12311;50.866;4.332;2023-08-31T02:46:25;2.90;;;1.70;;
24151;SDS011;12311;50.866;4.332;2023-08-31T02:48:51;2.50;;;1.60;;
24151;SDS011;12311;50.866;4.332;2023-08-31T02:51:16;3.20;;;1.73;;
24151;SDS011;12311;50.866;4.332;2023-08-31T02:53:42;3.33;;;1.70;;
24151;SDS011;12311;50.866;4.332;2023-08-31T02:56:08;2.60;;;1.40;;
24151;SDS011;12311;50.866;4.332;2023-08-31T02:58:33;3.60;;;1.45;;
24151;SDS011;12311;50.866;4.332;2023-08-31T03:01:06;2.67;;;1.40;;
24151;SDS011;12311;50.866;4.332;2023-08-31T03:03:38;2.20;;;1.40;;
24151;SDS011;12311;50.866;4.332;2023-08-31T03:06:05;2.83;;;1.75;;
24151;SDS011;12311;50.866;4.332;2023-08-31T03:08:32;2.72;;;1.65;;
24151;SDS011;12311;50.866;4.332;2023-08-31T03:10:58;3.08;;;1.50;;
24151;SDS011;12311;50.866;4.332;2023-08-31T03:13:24;2.70;;;1.35;;
24151;SDS011;12311;50.866;4.332;2023-08-31T03:15:49;2.83;;;1.40;;
24151;SDS011;12311;50.866;4.332;2023-08-31T03:18:15;2.53;;;1.58;;
24151;SDS011;12311;50.866;4.332;2023-08-31T03:20:41;3.45;;;1.60;;
24151;SDS011;12311;50.866;4.332;2023-08-31T03:23:06;2.38;;;1.35;;
24151;SDS011;12311;50.866;4.332;2023-08-31T03:25:34;2.85;;;1.45;;
24151;SDS011;12311;50.866;4.332;2023-08-31T03:28:00;5.85;;;1.88;;
24151;SDS011;12311;50.866;4.332;2023-08-31T03:30:25;3.20;;;1.60;;
24151;SDS011;12311;50.866;4.332;2023-08-31T03:32:51;3.78;;;1.40;;
24151;SDS011;12311;50.866;4.332;2023-08-31T03:35:17;2.17;;;1.38;;
24151;SDS011;12311;50.866;4.332;2023-08-31T03:37:42;3.97;;;1.20;;
24151;SDS011;12311;50.866;4.332;2023-08-31T03:40:11;2.17;;;1.33;;
24151;SDS011;12311;50.866;4.332;2023-08-31T03:42:37;3.05;;;1.38;;
24151;SDS011;12311;50.866;4.332;2023-08-31T03:45:03;4.13;;;1.65;;
24151;SDS011;12311;50.866;4.332;2023-08-31T03:47:29;1.80;;;1.17;;
24151;SDS011;12311;50.866;4.332;2023-08-31T03:49:55;4.07;;;1.88;;
24151;SDS011;12311;50.866;4.332;2023-08-31T03:52:21;2.60;;;1.25;;
24151;SDS011;12311;50.866;4.332;2023-08-31T03:54:48;2.47;;;1.42;;
24151;SDS011;12311;50.866;4.332;2023-08-31T03:57:14;1.90;;;1.38;;
24151;SDS011;12311;50.866;4.332;2023-08-31T03:59:39;2.92;;;1.30;;
24151;SDS011;12311;50.866;4.332;2023-08-31T04:02:05;2.58;;;1.52;;
24151;SDS011;12311;50.866;4.332;2023-08-31T04:04:31;3.42;;;1.50;;
24151;SDS011;12311;50.866;4.332;2023-08-31T04:06:59;3.78;;;1.80;;
24151;SDS011;12311;50.866;4.332;2023-08-31T04:09:25;2.92;;;1.70;;
24151;SDS011;12311;50.866;4.332;2023-08-31T04:11:51;3.00;;;1.23;;
24151;SDS011;12311;50.866;4.332;2023-08-31T04:14:16;2.55;;;1.70;;
24151;SDS011;12311;50.866;4.332;2023-08-31T04:16:43;3.85;;;1.70;;
24151;SDS011;12311;50.866;4.332;2023-08-31T04:19:09;3.72;;;1.50;;
24151;SDS011;12311;50.866;4.332;2023-08-31T04:21:35;3.85;;;1.85;;
24151;SDS011;12311;50.866;4.332;2023-08-31T04:24:03;2.60;;;1.52;;
24151;SDS011;12311;50.866;4.332;2023-08-31T04:26:28;4.07;;;1.80;;
24151;SDS011;12311;50.866;4.332;2023-08-31T04:28:54;2.33;;;1.58;;
24151;SDS011;12311;50.866;4.332;2023-08-31T04:31:20;2.50;;;1.40;;
24151;SDS011;12311;50.866;4.332;2023-08-31T04:33:46;2.35;;;1.60;;
24151;SDS011;12311;50.866;4.332;2023-08-31T04:36:13;3.10;;;1.65;;
24151;SDS011;12311;50.866;4.332;2023-08-31T04:38:40;8.05;;;1.70;;
24151;SDS011;12311;50.866;4.332;2023-08-31T04:41:05;3.03;;;1.70;;
24151;SDS011;12311;50.866;4.332;2023-08-31T04:43:31;3.42;;;1.60;;
24151;SDS011;12311;50.866;4.332;2023-08-31T04:45:57;5.60;;;2.00;;
24151;SDS011;12311;50.866;4.332;2023-08-31T04:48:22;3.78;;;1.80;;
24151;SDS011;12311;50.866;4.332;2023-08-31T04:50:48;3.50;;;1.65;;
24151;SDS011;12311;50.866;4.332;2023-08-31T04:53:14;2.63;;;1.52;;
24151;SDS011;12311;50.866;4.332;2023-08-31T04:55:39;2.35;;;1.60;;
24151;SDS011;12311;50.866;4.332;2023-08-31T04:58:05;3.35;;;2.08;;
24151;SDS011;12311;50.866;4.332;2023-08-31T05:00:31;3.92;;;1.63;;
24151;SDS011;12311;50.866;4.332;2023-08-31T05:02:57;4.80;;;1.90;;
24151;SDS011;12311;50.866;4.332;2023-08-31T05:05:22;3.55;;;1.83;;
24151;SDS011;12311;50.866;4.332;2023-08-31T05:07:48;3.63;;;1.65;;
24151;SDS011;12311;50.866;4.332;2023-08-31T05:10:14;4.28;;;2.00;;
24151;SDS011;12311;50.866;4.332;2023-08-31T05:12:39;3.03;;;1.98;;
24151;SDS011;12311;50.866;4.332;2023-08-31T05:15:05;3.13;;;2.05;;
24151;SDS011;12311;50.866;4.332;2023-08-31T05:17:31;3.55;;;2.17;;
24151;SDS011;12311;50.866;4.332;2023-08-31T05:19:57;3.83;;;2.03;;
24151;SDS011;12311;50.866;4.332;2023-08-31T05:22:23;5.00;;;3.00;;
24151;SDS011;12311;50.866;4.332;2023-08-31T05:24:49;6.03;;;3.22;;
24151;SDS011;12311;50.866;4.332;2023-08-31T05:27:14;4.53;;;2.47;;
24151;SDS011;12311;50.866;4.332;2023-08-31T05:29:40;5.50;;;2.42;;
24151;SDS011;12311;50.866;4.332;2023-08-31T05:32:05;5.22;;;2.60;;
24151;SDS011;12311;50.866;4.332;2023-08-31T05:34:31;6.90;;;1.88;;
24151;SDS011;12311;50.866;4.332;2023-08-31T05:36:59;3.35;;;1.50;;
24151;SDS011;12311;50.866;4.332;2023-08-31T05:39:25;3.75;;;1.77;;
24151;SDS011;12311;50.866;4.332;2023-08-31T05:41:51;3.00;;;1.77;;
24151;SDS011;12311;50.866;4.332;2023-08-31T05:44:16;3.67;;;1.77;;
24151;SDS011;12311;50.866;4.332;2023-08-31T05:46:42;3.60;;;1.60;;
24151;SDS011;12311;50.866;4.332;2023-08-31T05:49:08;4.50;;;1.80;;
24151;SDS011;12311;50.866;4.332;2023-08-31T05:51:34;2.80;;;1.52;;
24151;SDS011;12311;50.866;4.332;2023-08-31T05:54:00;4.88;;;2.20;;
24151;SDS011;12311;50.866;4.332;2023-08-31T05:56:26;6.45;;;1.95;;
24151;SDS011;12311;50.866;4.332;2023-08-31T05:58:51;2.63;;;1.45;;
24151;SDS011;12311;50.866;4.332;2023-08-31T06:01:20;5.50;;;1.77;;
24151;SDS011;12311;50.866;4.332;2023-08-31T06:03:47;3.75;;;1.77;;
24151;SDS011;12311;50.866;4.332;2023-08-31T06:06:13;3.50;;;1.85;;
24151;SDS011;12311;50.866;4.332;2023-08-31T06:08:39;4.07;;;1.95;;
24151;SDS011;12311;50.866;4.332;2023-08-31T06:11:07;4.72;;;2.22;;
24151;SDS011;12311;50.866;4.332;2023-08-31T06:13:33;6.65;;;1.80;;
24151;SDS011;12311;50.866;4.332;2023-08-31T06:15:58;9.60;;;1.70;;
24151;SDS011;12311;50.866;4.332;2023-08-31T06:18:25;3.60;;;1.70;;
24151;SDS011;12311;50.866;4.332;2023-08-31T06:20:51;4.38;;;1.70;;
24151;SDS011;12311;50.866;4.332;2023-08-31T06:23:16;3.80;;;2.45;;
24151;SDS011;12311;50.866;4.332;2023-08-31T06:25:42;2.53;;;1.45;;
24151;SDS011;12311;50.866;4.332;2023-08-31T06:28:10;3.40;;;1.60;;
24151;SDS011;12311;50.866;4.332;2023-08-31T06:30:37;3.83;;;1.75;;
24151;SDS011;12311;50.866;4.332;2023-08-31T06:33:03;3.22;;;1.63;;
24151;SDS011;12311;50.866;4.332;2023-08-31T06:35:29;6.57;;;2.13;;
24151;SDS011;12311;50.866;4.332;2023-08-31T06:37:56;5.40;;;1.75;;
24151;SDS011;12311;50.866;4.332;2023-08-31T06:40:22;4.65;;;2.10;;
24151;SDS011;12311;50.866;4.332;2023-08-31T06:42:49;6.88;;;1.77;;
24151;SDS011;12311;50.866;4.332;2023-08-31T06:45:14;3.20;;;1.67;;
24151;SDS011;12311;50.866;4.332;2023-08-31T06:47:40;4.22;;;1.90;;
24151;SDS011;12311;50.866;4.332;2023-08-31T06:50:05;6.18;;;2.00;;
24151;SDS011;12311;50.866;4.332;2023-08-31T06:52:31;6.38;;;2.22;;
24151;SDS011;12311;50.866;4.332;2023-08-31T06:54:57;4.53;;;1.25;;
24151;SDS011;12311;50.866;4.332;2023-08-31T06:57:23;4.93;;;1.50;;
24151;SDS011;12311;50.866;4.332;2023-08-31T06:59:49;5.57;;;2.00;;
24151;SDS011;12311;50.866;4.332;2023-08-31T07:02:15;3.00;;;1.70;;
24151;SDS011;12311;50.866;4.332;2023-08-31T07:04:41;2.92;;;1.38;;
24151;SDS011;12311;50.866;4.332;2023-08-31T07:07:07;3.83;;;1.88;;
24151;SDS011;12311;50.866;4.332;2023-08-31T07:09:33;5.13;;;2.00;;
24151;SDS011;12311;50.866;4.332;2023-08-31T07:12:00;4.88;;;1.70;;
24151;SDS011;12311;50.866;4.332;2023-08-31T07:14:29;8.80;;;2.05;;
24151;SDS011;12311;50.866;4.332;2023-08-31T07:16:54;7.38;;;1.80;;
24151;SDS011;12311;50.866;4.332;2023-08-31T07:19:20;5.10;;;2.13;;
24151;SDS011;12311;50.866;4.332;2023-08-31T07:21:45;3.83;;;1.55;;
24151;SDS011;12311;50.866;4.332;2023-08-31T07:24:13;4.88;;;2.30;;
24151;SDS011;12311;50.866;4.332;2023-08-31T07:26:38;5.65;;;1.63;;
24151;SDS011;12311;50.866;4.332;2023-08-31T07:29:04;6.65;;;2.08;;
24151;SDS011;12311;50.866;4.332;2023-08-31T07:31:30;3.00;;;1.73;;
24151;SDS011;12311;50.866;4.332;2023-08-31T07:33:56;6.10;;;1.55;;
24151;SDS011;12311;50.866;4.332;2023-08-31T07:36:22;4.82;;;2.17;;
24151;SDS011;12311;50.866;4.332;2023-08-31T07:38:48;7.10;;;2.08;;
24151;SDS011;12311;50.866;4.332;2023-08-31T07:41:13;5.47;;;1.65;;
24151;SDS011;12311;50.866;4.332;2023-08-31T07:43:39;3.88;;;1.85;;
24151;SDS011;12311;50.866;4.332;2023-08-31T07:46:05;7.93;;;1.80;;
24151;SDS011;12311;50.866;4.332;2023-08-31T07:48:30;8.27;;;1.90;;
24151;SDS011;12311;50.866;4.332;2023-08-31T07:50:56;3.58;;;1.88;;
24151;SDS011;12311;50.866;4.332;2023-08-31T07:53:22;4.03;;;1.83;;
24151;SDS011;12311;50.866;4.332;2023-08-31T07:55:54;8.68;;;1.63;;
24151;SDS011;12311;50.866;4.332;2023-08-31T07:58:21;7.90;;;1.80;;
24151;SDS011;12311;50.866;4.332;2023-08-31T08:00:48;10.25;;;2.28;;
24151;SDS011;12311;50.866;4.332;2023-08-31T08:03:14;4.80;;;1.95;;
24151;SDS011;12311;50.866;4.332;2023-08-31T08:05:40;5.03;;;2.08;;
24151;SDS011;12311;50.866;4.332;2023-08-31T08:08:06;4.75;;;2.22;;
24151;SDS011;12311;50.866;4.332;2023-08-31T08:10:32;8.63;;;2.58;;
24151;SDS011;12311;50.866;4.332;2023-08-31T08:12:58;3.83;;;1.65;;
24151;SDS011;12311;50.866;4.332;2023-08-31T08:15:24;5.03;;;1.70;;
24151;SDS011;12311;50.866;4.332;2023-08-31T08:17:50;6.60;;;1.90;;
24151;SDS011;12311;50.866;4.332;2023-08-31T08:20:16;3.70;;;1.90;;
24151;SDS011;12311;50.866;4.332;2023-08-31T08:22:42;4.43;;;1.83;;
24151;SDS011;12311;50.866;4.332;2023-08-31T08:25:08;6.70;;;2.00;;
24151;SDS011;12311;50.866;4.332;2023-08-31T08:27:34;5.72;;;2.20;;
24151;SDS011;12311;50.866;4.332;2023-08-31T08:30:01;8.45;;;2.10;;
24151;SDS011;12311;50.866;4.332;2023-08-31T08:32:28;4.97;;;2.15;;
24151;SDS011;12311;50.866;4.332;2023-08-31T08:34:53;3.97;;;1.55;;
24151;SDS011;12311;50.866;4.332;2023-08-31T08:37:19;9.43;;;2.00;;
24151;SDS011;12311;50.866;4.332;2023-08-31T08:39:48;5.32;;;1.65;;
24151;SDS011;12311;50.866;4.332;2023-08-31T08:42:15;4.55;;;1.70;;
24151;SDS011;12311;50.866;4.332;2023-08-31T08:44:44;4.18;;;1.60;;
24151;SDS011;12311;50.866;4.332;2023-08-31T08:47:11;4.88;;;2.38;;
24151;SDS011;12311;50.866;4.332;2023-08-31T08:49:37;5.20;;;1.98;;
24151;SDS011;12311;50.866;4.332;2023-08-31T08:52:03;3.90;;;1.90;;
24151;SDS011;12311;50.866;4.332;2023-08-31T08:54:30;2.83;;;1.58;;
24151;SDS011;12311;50.866;4.332;2023-08-31T08:56:57;5.53;;;2.22;;
24151;SDS011;12311;50.866;4.332;2023-08-31T08:59:23;4.75;;;1.80;;
24151;SDS011;12311;50.866;4.332;2023-08-31T09:01:49;5.20;;;2.35;;
24151;SDS011;12311;50.866;4.332;2023-08-31T09:04:15;6.10;;;1.83;;
24151;SDS011;12311;50.866;4.332;2023-08-31T09:06:41;4.82;;;2.05;;
24151;SDS011;12311;50.866;4.332;2023-08-31T09:09:10;3.97;;;2.03;;
24151;SDS011;12311;50.866;4.332;2023-08-31T09:11:36;6.25;;;1.80;;
24151;SDS011;12311;50.866;4.332;2023-08-31T09:14:20;5.00;;;1.70;;
24151;SDS011;12311;50.866;4.332;2023-08-31T09:16:47;3.22;;;1.48;;
24151;SDS011;12311;50.866;4.332;2023-08-31T09:19:21;3.65;;;1.85;;
24151;SDS011;12311;50.866;4.332;2023-08-31T09:21:48;5.07;;;1.80;;
24151;SDS011;12311;50.866;4.332;2023-08-31T09:24:17;4.32;;;1.80;;
24151;SDS011;12311;50.866;4.332;2023-08-31T09:26:44;4.60;;;1.80;;
24151;SDS011;12311;50.866;4.332;2023-08-31T09:29:13;4.68;;;1.75;;
24151;SDS011;12311;50.866;4.332;2023-08-31T09:31:43;4.53;;;2.50;;
24151;SDS011;12311;50.866;4.332;2023-08-31T09:34:10;4.55;;;1.98;;
24151;SDS011;12311;50.866;4.332;2023-08-31T09:36:36;3.22;;;1.77;;
24151;SDS011;12311;50.866;4.332;2023-08-31T09:39:03;3.92;;;1.90;;
24151;SDS011;12311;50.866;4.332;2023-08-31T09:41:31;3.92;;;1.67;;
24151;SDS011;12311;50.866;4.332;2023-08-31T09:44:06;3.58;;;1.50;;
24151;SDS011;12311;50.866;4.332;2023-08-31T09:46:43;5.90;;;1.48;;
24151;SDS011;12311;50.866;4.332;2023-08-31T09:49:10;5.88;;;1.90;;
24151;SDS011;12311;50.866;4.332;2023-08-31T09:51:39;5.63;;;2.25;;
24151;SDS011;12311;50.866;4.332;2023-08-31T09:54:09;5.40;;;1.85;;
24151;SDS011;12311;50.866;4.332;2023-08-31T09:56:38;6.47;;;2.03;;
24151;SDS011;12311;50.866;4.332;2023-08-31T09:59:07;7.43;;;2.30;;
24151;SDS011;12311;50.866;4.332;2023-08-31T10:01:33;3.53;;;1.40;;
24151;SDS011;12311;50.866;4.332;2023-08-31T10:03:59;3.03;;;1.27;;
24151;SDS011;12311;50.866;4.332;2023-08-31T10:06:26;4.60;;;1.60;;
24151;SDS011;12311;50.866;4.332;2023-08-31T10:08:53;8.05;;;1.73;;
24151;SDS011;12311;50.866;4.332;2023-08-31T10:11:20;3.13;;;1.30;;
24151;SDS011;12311;50.866;4.332;2023-08-31T10:13:47;4.72;;;1.38;;
24151;SDS011;12311;50.866;4.332;2023-08-31T10:16:14;7.63;;;1.70;;
24151;SDS011;12311;50.866;4.332;2023-08-31T10:18:40;2.88;;;1.50;;
24151;SDS011;12311;50.866;4.332;2023-08-31T10:21:06;4.03;;;1.60;;
24151;SDS011;12311;50.866;4.332;2023-08-31T10:23:33;2.78;;;1.40;;
24151;SDS011;12311;50.866;4.332;2023-08-31T10:26:00;6.07;;;2.05;;
24151;SDS011;12311;50.866;4.332;2023-08-31T10:28:28;4.05;;;1.88;;
24151;SDS011;12311;50.866;4.332;2023-08-31T10:33:28;4.75;;;1.55;;
24151;SDS011;12311;50.866;4.332;2023-08-31T10:36:50;3.67;;;1.58;;
24151;SDS011;12311;50.866;4.332;2023-08-31T10:39:14;2.85;;;1.52;;
24151;SDS011;12311;50.866;4.332;2023-08-31T10:41:54;3.47;;;1.20;;
24151;SDS011;12311;50.866;4.332;2023-08-31T10:44:22;2.50;;;1.58;;
24151;SDS011;12311;50.866;4.332;2023-08-31T10:46:49;2.97;;;1.85;;
24151;SDS011;12311;50.866;4.332;2023-08-31T10:49:16;3.17;;;1.67;;
24151;SDS011;12311;50.866;4.332;2023-08-31T10:51:47;3.75;;;1.30;;
24151;SDS011;12311;50.866;4.332;2023-08-31T10:54:39;2.35;;;1.48;;
24151;SDS011;12311;50.866;4.332;2023-08-31T10:57:05;4.22;;;1.98;;
24151;SDS011;12311;50.866;4.332;2023-08-31T10:59:50;4.50;;;1.70;;
24151;SDS011;12311;50.866;4.332;2023-08-31T11:07:58;3.13;;;1.30;;
24151;SDS011;12311;50.866;4.332;2023-08-31T11:10:24;4.05;;;1.30;;
24151;SDS011;12311;50.866;4.332;2023-08-31T11:12:52;4.85;;;1.25;;
24151;SDS011;12311;50.866;4.332;2023-08-31T11:15:22;5.88;;;1.48;;
24151;SDS011;12311;50.866;4.332;2023-08-31T11:20:17;3.55;;;1.10;;
24151;SDS011;12311;50.866;4.332;2023-08-31T11:22:47;2.22;;;1.40;;
24151;SDS011;12311;50.866;4.332;2023-08-31T11:25:15;4.22;;;1.20;;
24151;SDS011;12311;50.866;4.332;2023-08-31T11:27:42;2.05;;;0.93;;
24151;SDS011;12311;50.866;4.332;2023-08-31T11:30:18;3.42;;;1.25;;
24151;SDS011;12311;50.866;4.332;2023-08-31T11:32:50;2.58;;;1.45;;
24151;SDS011;12311;50.866;4.332;2023-08-31T11:35:16;1.60;;;0.95;;
24151;SDS011;12311;50.866;4.332;2023-08-31T11:37:43;6.43;;;1.48;;
24151;SDS011;12311;50.866;4.332;2023-08-31T11:40:10;2.45;;;0.90;;
24151;SDS011;12311;50.866;4.332;2023-08-31T11:42:39;3.63;;;0.85;;
24151;SDS011;12311;50.866;4.332;2023-08-31T11:45:05;3.35;;;0.95;;
24151;SDS011;12311;50.866;4.332;2023-08-31T11:47:32;2.38;;;0.90;;
24151;SDS011;12311;50.866;4.332;2023-08-31T11:49:58;3.53;;;0.90;;
24151;SDS011;12311;50.866;4.332;2023-08-31T11:52:26;1.85;;;0.80;;
24151;SDS011;12311;50.866;4.332;2023-08-31T11:54:53;3.45;;;0.90;;
24151;SDS011;12311;50.866;4.332;2023-08-31T11:57:19;1.58;;;0.80;;
24151;SDS011;12311;50.866;4.332;2023-08-31T11:59:50;2.20;;;1.48;;
24151;SDS011;12311;50.866;4.332;2023-08-31T12:02:18;1.73;;;1.00;;
24151;SDS011;12311;50.866;4.332;2023-08-31T12:04:44;2.75;;;0.85;;
24151;SDS011;12311;50.866;4.332;2023-08-31T12:07:11;3.22;;;1.88;;
24151;SDS011;12311;50.866;4.332;2023-08-31T12:09:40;4.38;;;1.15;;
24151;SDS011;12311;50.866;4.332;2023-08-31T12:12:07;1.55;;;0.70;;
24151;SDS011;12311;50.866;4.332;2023-08-31T12:14:33;1.17;;;1.00;;
24151;SDS011;12311;50.866;4.332;2023-08-31T12:17:03;1.77;;;1.27;;
24151;SDS011;12311;50.866;4.332;2023-08-31T12:19:31;2.05;;;1.00;;
24151;SDS011;12311;50.866;4.332;2023-08-31T12:21:57;2.47;;;0.90;;
24151;SDS011;12311;50.866;4.332;2023-08-31T12:24:23;2.05;;;0.90;;
24151;SDS011;12311;50.866;4.332;2023-08-31T12:26:49;2.55;;;0.95;;
24151;SDS011;12311;50.866;4.332;2023-08-31T12:29:15;3.35;;;0.90;;
24151;SDS011;12311;50.866;4.332;2023-08-31T12:31:41;1.42;;;0.75;;
24151;SDS011;12311;50.866;4.332;2023-08-31T12:34:08;4.93;;;1.70;;
24151;SDS011;12311;50.866;4.332;2023-08-31T12:36:35;3.03;;;0.98;;
24151;SDS011;12311;50.866;4.332;2023-08-31T12:39:03;1.52;;;0.90;;
24151;SDS011;12311;50.866;4.332;2023-08-31T12:41:32;3.20;;;1.55;;
24151;SDS011;12311;50.866;4.332;2023-08-31T12:43:58;1.92;;;0.98;;
24151;SDS011;12311;50.866;4.332;2023-08-31T12:46:24;2.15;;;0.73;;
24151;SDS011;12311;50.866;4.332;2023-08-31T12:48:50;1.95;;;0.80;;
24151;SDS011;12311;50.866;4.332;2023-08-31T12:51:17;2.22;;;0.80;;
24151;SDS011;12311;50.866;4.332;2023-08-31T12:53:43;3.17;;;1.00;;
24151;SDS011;12311;50.866;4.332;2023-08-31T12:56:09;2.30;;;1.00;;
24151;SDS011;12311;50.866;4.332;2023-08-31T12:58:35;3.60;;;1.20;;
24151;SDS011;12311;50.866;4.332;2023-08-31T13:01:01;6.55;;;1.05;;
24151;SDS011;12311;50.866;4.332;2023-08-31T13:03:27;2.28;;;0.88;;
24151;SDS011;12311;50.866;4.332;2023-08-31T13:05:53;4.68;;;0.75;;
24151;SDS011;12311;50.866;4.332;2023-08-31T13:08:19;6.18;;;1.15;;
24151;SDS011;12311;50.866;4.332;2023-08-31T13:10:51;2.70;;;1.20;;
24151;SDS011;12311;50.866;4.332;2023-08-31T13:13:18;2.00;;;0.85;;
24151;SDS011;12311;50.866;4.332;2023-08-31T13:15:47;2.28;;;0.95;;
24151;SDS011;12311;50.866;4.332;2023-08-31T13:18:13;1.90;;;0.88;;
24151;SDS011;12311;50.866;4.332;2023-08-31T13:20:39;2.38;;;0.80;;
24151;SDS011;12311;50.866;4.332;2023-08-31T13:23:06;1.98;;;0.80;;
24151;SDS011;12311;50.866;4.332;2023-08-31T13:25:32;1.27;;;0.80;;
24151;SDS011;12311;50.866;4.332;2023-08-31T13:27:58;1.77;;;0.95;;
24151;SDS011;12311;50.866;4.332;2023-08-31T13:30:24;2.00;;;0.70;;
24151;SDS011;12311;50.866;4.332;2023-08-31T13:32:49;2.20;;;0.82;;
24151;SDS011;12311;50.866;4.332;2023-08-31T13:35:15;1.85;;;0.65;;
24151;SDS011;12311;50.866;4.332;2023-08-31T13:37:41;2.83;;;0.80;;
24151;SDS011;12311;50.866;4.332;2023-08-31T13:40:07;1.35;;;0.75;;
24151;SDS011;12311;50.866;4.332;2023-08-31T13:42:34;3.33;;;0.90;;
24151;SDS011;12311;50.866;4.332;2023-08-31T13:45:04;5.47;;;0.90;;
24151;SDS011;12311;50.866;4.332;2023-08-31T13:47:31;1.58;;;0.80;;
24151;SDS011;12311;50.866;4.332;2023-08-31T13:49:57;2.83;;;1.05;;
24151;SDS011;12311;50.866;4.332;2023-08-31T13:52:22;3.40;;;0.95;;
24151;SDS011;12311;50.866;4.332;2023-08-31T13:54:49;4.22;;;1.05;;
24151;SDS011;12311;50.866;4.332;2023-08-31T13:57:15;2.92;;;1.10;;
24151;SDS011;12311;50.866;4.332;2023-08-31T13:59:43;3.20;;;0.93;;
24151;SDS011;12311;50.866;4.332;2023-08-31T14:02:09;1.98;;;0.82;;
24151;SDS011;12311;50.866;4.332;2023-08-31T14:04:34;4.28;;;1.48;;
24151;SDS011;12311;50.866;4.332;2023-08-31T14:07:00;2.85;;;0.88;;
24151;SDS011;12311;50.866;4.332;2023-08-31T14:09:26;2.63;;;1.10;;
24151;SDS011;12311;50.866;4.332;2023-08-31T14:11:52;8.38;;;1.55;;
24151;SDS011;12311;50.866;4.332;2023-08-31T14:14:20;4.72;;;0.90;;
24151;SDS011;12311;50.866;4.332;2023-08-31T14:16:47;3.80;;;1.15;;
24151;SDS011;12311;50.866;4.332;2023-08-31T14:19:13;4.45;;;1.17;;
24151;SDS011;12311;50.866;4.332;2023-08-31T14:21:39;3.90;;;1.00;;
24151;SDS011;12311;50.866;4.332;2023-08-31T14:24:04;3.85;;;1.33;;
24151;SDS011;12311;50.866;4.332;2023-08-31T14:26:31;2.22;;;1.17;;
24151;SDS011;12311;50.866;4.332;2023-08-31T14:28:56;6.95;;;1.73;;
24151;SDS011;12311;50.866;4.332;2023-08-31T14:31:22;4.32;;;1.27;;
24151;SDS011;12311;50.866;4.332;2023-08-31T14:33:48;3.60;;;1.25;;
24151;SDS011;12311;50.866;4.332;2023-08-31T14:36:14;7.45;;;1.20;;
24151;SDS011;12311;50.866;4.332;2023-08-31T14:38:41;2.72;;;1.23;;
24151;SDS011;12311;50.866;4.332;2023-08-31T14:41:06;5.32;;;1.30;;
24151;SDS011;12311;50.866;4.332;2023-08-31T14:43:33;4.55;;;1.27;;
24151;SDS011;12311;50.866;4.332;2023-08-31T14:45:59;4.13;;;1.13;;
24151;SDS011;12311;50.866;4.332;2023-08-31T14:48:28;5.43;;;1.30;;
24151;SDS011;12311;50.866;4.332;2023-08-31T14:50:55;4.22;;;1.27;;
24151;SDS011;12311;50.866;4.332;2023-08-31T14:53:23;2.75;;;1.05;;
24151;SDS011;12311;50.866;4.332;2023-08-31T14:55:49;3.28;;;1.35;;
24151;SDS011;12311;50.866;4.332;2023-08-31T14:58:15;2.10;;;1.00;;
24151;SDS011;12311;50.866;4.332;2023-08-31T15:00:41;7.40;;;1.52;;
24151;SDS011;12311;50.866;4.332;2023-08-31T15:03:07;5.68;;;1.67;;
24151;SDS011;12311;50.866;4.332;2023-08-31T15:05:34;3.53;;;1.20;;
24151;SDS011;12311;50.866;4.332;2023-08-31T15:08:00;6.10;;;1.48;;